sensor_id;sensor_type;location;lat;lon;timestamp;P1;durP1;ratioP1;P2;durP2;ratioP2
65658;SDS011;60181;53.258;6.932;2023-12-28T00:01:17;8.00;;;3.40;;
65658;SDS011;60181;53.258;6.932;2023-12-28T00:05:29;8.00;;;3.40;;
65658;SDS011;60181;53.258;6.932;2023-12-28T00:09:41;8.00;;;3.40;;
65658;SDS011;60181;53.258;6.932;2023-12-28T00:13:53;5.90;;;3.10;;
65658;SDS011;60181;53.258;6.932;2023-12-28T00:18:05;5.90;;;3.10;;
65658;SDS011;60181;53.258;6.932;2023-12-28T00:22:17;6.80;;;3.20;;
65658;SDS011;60181;53.258;6.932;2023-12-28T00:26:29;6.80;;;3.20;;
65658;SDS011;60181;53.258;6.932;2023-12-28T00:30:41;8.70;;;3.20;;
65658;SDS011;60181;53.258;6.932;2023-12-28T00:34:53;8.70;;;3.20;;
65658;SDS011;60181;53.258;6.932;2023-12-28T00:39:05;8.70;;;3.20;;
65658;SDS011;60181;53.258;6.932;2023-12-28T00:43:17;7.30;;;2.90;;
65658;SDS011;60181;53.258;6.932;2023-12-28T00:47:29;7.30;;;2.90;;
65658;SDS011;60181;53.258;6.932;2023-12-28T00:51:41;8.00;;;2.90;;
65658;SDS011;60181;53.258;6.932;2023-12-28T00:55:53;8.00;;;2.90;;
65658;SDS011;60181;53.258;6.932;2023-12-28T01:00:06;6.30;;;2.80;;
65658;SDS011;60181;53.258;6.932;2023-12-28T01:04:17;6.30;;;2.80;;
65658;SDS011;60181;53.258;6.932;2023-12-28T01:08:29;6.30;;;2.80;;
65658;SDS011;60181;53.258;6.932;2023-12-28T01:12:41;5.70;;;2.80;;
65658;SDS011;60181;53.258;6.932;2023-12-28T01:16:53;5.70;;;2.80;;
65658;SDS011;60181;53.258;6.932;2023-12-28T01:21:05;5.90;;;2.50;;
65658;SDS011;60181;53.258;6.932;2023-12-28T01:25:17;5.90;;;2.50;;
65658;SDS011;60181;53.258;6.932;2023-12-28T01:29:29;5.90;;;2.50;;
65658;SDS011;60181;53.258;6.932;2023-12-28T01:33:41;6.40;;;2.80;;
65658;SDS011;60181;53.258;6.932;2023-12-28T01:37:53;6.40;;;2.80;;
65658;SDS011;60181;53.258;6.932;2023-12-28T01:42:05;5.30;;;2.40;;
65658;SDS011;60181;53.258;6.932;2023-12-28T01:46:18;5.30;;;2.40;;
65658;SDS011;60181;53.258;6.932;2023-12-28T01:50:30;4.90;;;2.40;;
65658;SDS011;60181;53.258;6.932;2023-12-28T01:54:41;4.90;;;2.40;;
65658;SDS011;60181;53.258;6.932;2023-12-28T01:58:53;4.90;;;2.40;;
65658;SDS011;60181;53.258;6.932;2023-12-28T02:03:06;7.00;;;2.60;;
65658;SDS011;60181;53.258;6.932;2023-12-28T02:07:17;7.00;;;2.60;;
65658;SDS011;60181;53.258;6.932;2023-12-28T02:11:29;5.60;;;2.40;;
65658;SDS011;60181;53.258;6.932;2023-12-28T02:15:41;5.60;;;2.40;;
65658;SDS011;60181;53.258;6.932;2023-12-28T02:19:54;5.00;;;2.20;;
65658;SDS011;60181;53.258;6.932;2023-12-28T02:24:05;5.00;;;2.20;;
65658;SDS011;60181;53.258;6.932;2023-12-28T02:28:17;5.00;;;2.20;;
65658;SDS011;60181;53.258;6.932;2023-12-28T02:32:40;6.20;;;2.30;;
65658;SDS011;60181;53.258;6.932;2023-12-28T02:36:41;6.20;;;2.30;;
65658;SDS011;60181;53.258;6.932;2023-12-28T02:40:53;8.50;;;2.30;;
65658;SDS011;60181;53.258;6.932;2023-12-28T02:45:06;8.50;;;2.30;;
65658;SDS011;60181;53.258;6.932;2023-12-28T02:49:17;8.50;;;2.30;;
65658;SDS011;60181;53.258;6.932;2023-12-28T02:53:29;5.80;;;2.30;;
65658;SDS011;60181;53.258;6.932;2023-12-28T02:57:42;5.80;;;2.30;;
65658;SDS011;60181;53.258;6.932;2023-12-28T03:01:53;5.10;;;2.30;;
65658;SDS011;60181;53.258;6.932;2023-12-28T03:06:05;5.10;;;2.30;;
65658;SDS011;60181;53.258;6.932;2023-12-28T03:10:17;5.40;;;2.00;;
65658;SDS011;60181;53.258;6.932;2023-12-28T03:14:29;5.40;;;2.00;;
65658;SDS011;60181;53.258;6.932;2023-12-28T03:18:41;5.40;;;2.00;;
65658;SDS011;60181;53.258;6.932;2023-12-28T03:22:53;6.70;;;2.00;;
65658;SDS011;60181;53.258;6.932;2023-12-28T03:27:05;6.70;;;2.00;;
65658;SDS011;60181;53.258;6.932;2023-12-28T03:31:17;5.20;;;1.90;;
65658;SDS011;60181;53.258;6.932;2023-12-28T03:35:29;5.20;;;1.90;;
65658;SDS011;60181;53.258;6.932;2023-12-28T03:39:41;5.20;;;1.90;;
65658;SDS011;60181;53.258;6.932;2023-12-28T03:43:53;3.90;;;2.00;;
65658;SDS011;60181;53.258;6.932;2023-12-28T03:48:05;3.90;;;2.00;;
65658;SDS011;60181;53.258;6.932;2023-12-28T03:52:17;4.20;;;2.10;;
65658;SDS011;60181;53.258;6.932;2023-12-28T03:56:29;4.20;;;2.10;;
65658;SDS011;60181;53.258;6.932;2023-12-28T04:00:41;5.90;;;1.90;;
65658;SDS011;60181;53.258;6.932;2023-12-28T04:04:53;5.90;;;1.90;;
65658;SDS011;60181;53.258;6.932;2023-12-28T04:09:05;5.90;;;1.90;;
65658;SDS011;60181;53.258;6.932;2023-12-28T04:13:17;6.60;;;2.20;;
65658;SDS011;60181;53.258;6.932;2023-12-28T04:17:29;6.60;;;2.20;;
65658;SDS011;60181;53.258;6.932;2023-12-28T04:21:44;8.90;;;2.20;;
65658;SDS011;60181;53.258;6.932;2023-12-28T04:25:53;8.90;;;2.20;;
65658;SDS011;60181;53.258;6.932;2023-12-28T04:30:05;4.20;;;2.00;;
65658;SDS011;60181;53.258;6.932;2023-12-28T04:34:17;4.20;;;2.00;;
65658;SDS011;60181;53.258;6.932;2023-12-28T04:38:29;4.20;;;2.00;;
65658;SDS011;60181;53.258;6.932;2023-12-28T04:42:41;8.90;;;2.10;;
65658;SDS011;60181;53.258;6.932;2023-12-28T04:46:53;8.90;;;2.10;;
65658;SDS011;60181;53.258;6.932;2023-12-28T04:51:05;10.50;;;2.00;;
65658;SDS011;60181;53.258;6.932;2023-12-28T04:55:17;10.50;;;2.00;;
65658;SDS011;60181;53.258;6.932;2023-12-28T04:59:29;10.50;;;2.00;;
65658;SDS011;60181;53.258;6.932;2023-12-28T05:03:41;8.50;;;2.00;;
65658;SDS011;60181;53.258;6.932;2023-12-28T05:07:53;8.50;;;2.00;;
65658;SDS011;60181;53.258;6.932;2023-12-28T05:12:05;5.20;;;1.70;;
65658;SDS011;60181;53.258;6.932;2023-12-28T05:16:17;5.20;;;1.70;;
65658;SDS011;60181;53.258;6.932;2023-12-28T05:20:29;4.40;;;1.80;;
65658;SDS011;60181;53.258;6.932;2023-12-28T05:24:41;4.40;;;1.80;;
65658;SDS011;60181;53.258;6.932;2023-12-28T05:28:53;4.40;;;1.80;;
65658;SDS011;60181;53.258;6.932;2023-12-28T05:33:05;3.80;;;1.70;;
65658;SDS011;60181;53.258;6.932;2023-12-28T05:37:17;3.80;;;1.70;;
65658;SDS011;60181;53.258;6.932;2023-12-28T05:41:29;4.60;;;1.70;;
65658;SDS011;60181;53.258;6.932;2023-12-28T05:45:41;4.60;;;1.70;;
65658;SDS011;60181;53.258;6.932;2023-12-28T05:49:53;5.20;;;1.70;;
65658;SDS011;60181;53.258;6.932;2023-12-28T05:54:05;5.20;;;1.70;;
65658;SDS011;60181;53.258;6.932;2023-12-28T05:58:17;5.20;;;1.70;;
65658;SDS011;60181;53.258;6.932;2023-12-28T06:02:29;3.70;;;1.70;;
65658;SDS011;60181;53.258;6.932;2023-12-28T06:06:41;3.70;;;1.70;;
65658;SDS011;60181;53.258;6.932;2023-12-28T06:10:53;16.60;;;1.70;;
65658;SDS011;60181;53.258;6.932;2023-12-28T06:15:05;16.60;;;1.70;;
65658;SDS011;60181;53.258;6.932;2023-12-28T06:19:17;16.60;;;1.70;;
65658;SDS011;60181;53.258;6.932;2023-12-28T06:23:29;9.80;;;1.60;;
65658;SDS011;60181;53.258;6.932;2023-12-28T06:27:41;9.80;;;1.60;;
65658;SDS011;60181;53.258;6.932;2023-12-28T06:31:53;6.50;;;1.70;;
65658;SDS011;60181;53.258;6.932;2023-12-28T06:36:05;6.50;;;1.70;;
65658;SDS011;60181;53.258;6.932;2023-12-28T06:40:17;5.60;;;1.60;;
65658;SDS011;60181;53.258;6.932;2023-12-28T06:44:29;5.60;;;1.60;;
65658;SDS011;60181;53.258;6.932;2023-12-28T06:48:41;5.60;;;1.60;;
65658;SDS011;60181;53.258;6.932;2023-12-28T06:52:53;6.40;;;1.70;;
65658;SDS011;60181;53.258;6.932;2023-12-28T06:57:05;6.40;;;1.70;;
65658;SDS011;60181;53.258;6.932;2023-12-28T07:01:17;6.30;;;2.10;;
65658;SDS011;60181;53.258;6.932;2023-12-28T07:05:29;6.30;;;2.10;;
65658;SDS011;60181;53.258;6.932;2023-12-28T07:09:41;6.30;;;2.10;;
65658;SDS011;60181;53.258;6.932;2023-12-28T07:13:53;5.30;;;1.80;;
65658;SDS011;60181;53.258;6.932;2023-12-28T07:18:05;5.30;;;1.80;;
65658;SDS011;60181;53.258;6.932;2023-12-28T07:22:17;5.10;;;1.70;;
65658;SDS011;60181;53.258;6.932;2023-12-28T07:26:29;5.10;;;1.70;;
65658;SDS011;60181;53.258;6.932;2023-12-28T07:30:41;8.70;;;1.90;;
65658;SDS011;60181;53.258;6.932;2023-12-28T07:34:53;8.70;;;1.90;;
65658;SDS011;60181;53.258;6.932;2023-12-28T07:39:05;8.70;;;1.90;;
65658;SDS011;60181;53.258;6.932;2023-12-28T07:43:17;5.80;;;1.70;;
65658;SDS011;60181;53.258;6.932;2023-12-28T07:47:29;5.80;;;1.70;;
65658;SDS011;60181;53.258;6.932;2023-12-28T07:51:41;6.60;;;1.60;;
65658;SDS011;60181;53.258;6.932;2023-12-28T07:55:53;6.60;;;1.60;;
65658;SDS011;60181;53.258;6.932;2023-12-28T08:00:05;4.90;;;1.60;;
65658;SDS011;60181;53.258;6.932;2023-12-28T08:04:17;4.90;;;1.60;;
65658;SDS011;60181;53.258;6.932;2023-12-28T08:08:29;4.90;;;1.60;;
65658;SDS011;60181;53.258;6.932;2023-12-28T08:12:41;5.50;;;1.70;;
65658;SDS011;60181;53.258;6.932;2023-12-28T08:16:53;5.50;;;1.70;;
65658;SDS011;60181;53.258;6.932;2023-12-28T08:21:05;4.30;;;1.50;;
65658;SDS011;60181;53.258;6.932;2023-12-28T08:25:17;4.30;;;1.50;;
65658;SDS011;60181;53.258;6.932;2023-12-28T08:29:29;4.30;;;1.50;;
65658;SDS011;60181;53.258;6.932;2023-12-28T08:33:41;4.90;;;1.60;;
65658;SDS011;60181;53.258;6.932;2023-12-28T08:37:53;4.90;;;1.60;;
65658;SDS011;60181;53.258;6.932;2023-12-28T08:42:05;7.40;;;1.70;;
65658;SDS011;60181;53.258;6.932;2023-12-28T08:46:17;7.40;;;1.70;;
65658;SDS011;60181;53.258;6.932;2023-12-28T08:50:29;4.30;;;1.50;;
65658;SDS011;60181;53.258;6.932;2023-12-28T08:54:41;4.30;;;1.50;;
65658;SDS011;60181;53.258;6.932;2023-12-28T08:58:53;4.30;;;1.50;;
65658;SDS011;60181;53.258;6.932;2023-12-28T09:03:05;4.20;;;1.50;;
65658;SDS011;60181;53.258;6.932;2023-12-28T09:07:17;4.20;;;1.50;;
65658;SDS011;60181;53.258;6.932;2023-12-28T09:11:29;6.00;;;1.60;;
65658;SDS011;60181;53.258;6.932;2023-12-28T09:15:41;6.00;;;1.60;;
65658;SDS011;60181;53.258;6.932;2023-12-28T09:19:53;3.30;;;1.30;;
65658;SDS011;60181;53.258;6.932;2023-12-28T09:24:05;3.30;;;1.30;;
65658;SDS011;60181;53.258;6.932;2023-12-28T09:28:17;3.30;;;1.30;;
65658;SDS011;60181;53.258;6.932;2023-12-28T09:32:29;3.90;;;1.40;;
65658;SDS011;60181;53.258;6.932;2023-12-28T09:36:41;3.90;;;1.40;;
65658;SDS011;60181;53.258;6.932;2023-12-28T09:40:53;6.20;;;1.50;;
65658;SDS011;60181;53.258;6.932;2023-12-28T09:45:05;6.20;;;1.50;;
65658;SDS011;60181;53.258;6.932;2023-12-28T09:49:17;6.20;;;1.50;;
65658;SDS011;60181;53.258;6.932;2023-12-28T09:53:29;5.20;;;1.30;;
65658;SDS011;60181;53.258;6.932;2023-12-28T09:57:41;5.20;;;1.30;;
65658;SDS011;60181;53.258;6.932;2023-12-28T10:01:53;5.60;;;1.40;;
65658;SDS011;60181;53.258;6.932;2023-12-28T10:06:05;5.60;;;1.40;;
65658;SDS011;60181;53.258;6.932;2023-12-28T10:10:17;5.20;;;1.30;;
65658;SDS011;60181;53.258;6.932;2023-12-28T10:14:29;5.20;;;1.30;;
65658;SDS011;60181;53.258;6.932;2023-12-28T10:18:43;5.20;;;1.30;;
65658;SDS011;60181;53.258;6.932;2023-12-28T10:22:53;5.80;;;1.40;;
65658;SDS011;60181;53.258;6.932;2023-12-28T10:27:05;5.80;;;1.40;;
65658;SDS011;60181;53.258;6.932;2023-12-28T10:31:17;7.60;;;1.70;;
65658;SDS011;60181;53.258;6.932;2023-12-28T10:35:29;7.60;;;1.70;;
65658;SDS011;60181;53.258;6.932;2023-12-28T10:39:41;7.60;;;1.70;;
65658;SDS011;60181;53.258;6.932;2023-12-28T10:44:05;4.80;;;1.40;;
65658;SDS011;60181;53.258;6.932;2023-12-28T10:48:06;4.80;;;1.40;;
65658;SDS011;60181;53.258;6.932;2023-12-28T10:52:17;6.30;;;1.30;;
65658;SDS011;60181;53.258;6.932;2023-12-28T11:00:43;6.40;;;1.50;;
65658;SDS011;60181;53.258;6.932;2023-12-28T11:04:53;6.40;;;1.50;;
65658;SDS011;60181;53.258;6.932;2023-12-28T11:09:04;6.40;;;1.50;;
65658;SDS011;60181;53.258;6.932;2023-12-28T11:13:17;6.60;;;1.30;;
65658;SDS011;60181;53.258;6.932;2023-12-28T11:17:29;6.60;;;1.30;;
65658;SDS011;60181;53.258;6.932;2023-12-28T11:21:40;6.20;;;1.40;;
65658;SDS011;60181;53.258;6.932;2023-12-28T11:25:52;6.20;;;1.40;;
65658;SDS011;60181;53.258;6.932;2023-12-28T11:30:05;8.50;;;1.40;;
65658;SDS011;60181;53.258;6.932;2023-12-28T11:34:17;8.50;;;1.40;;
65658;SDS011;60181;53.258;6.932;2023-12-28T11:38:28;8.50;;;1.40;;
65658;SDS011;60181;53.258;6.932;2023-12-28T11:42:50;6.10;;;1.30;;
65658;SDS011;60181;53.258;6.932;2023-12-28T11:46:52;6.10;;;1.30;;
65658;SDS011;60181;53.258;6.932;2023-12-28T11:51:04;10.00;;;1.70;;
65658;SDS011;60181;53.258;6.932;2023-12-28T11:55:22;10.00;;;1.70;;
65658;SDS011;60181;53.258;6.932;2023-12-28T11:59:28;10.00;;;1.70;;
65658;SDS011;60181;53.258;6.932;2023-12-28T12:03:40;6.50;;;1.50;;
65658;SDS011;60181;53.258;6.932;2023-12-28T12:07:52;6.50;;;1.50;;
65658;SDS011;60181;53.258;6.932;2023-12-28T12:12:06;7.30;;;1.40;;
65658;SDS011;60181;53.258;6.932;2023-12-28T12:16:16;7.30;;;1.40;;
65658;SDS011;60181;53.258;6.932;2023-12-28T12:20:29;6.80;;;1.40;;
65658;SDS011;60181;53.258;6.932;2023-12-28T12:24:41;6.80;;;1.40;;
65658;SDS011;60181;53.258;6.932;2023-12-28T12:28:52;6.80;;;1.40;;
65658;SDS011;60181;53.258;6.932;2023-12-28T12:33:05;6.20;;;1.50;;
65658;SDS011;60181;53.258;6.932;2023-12-28T12:37:16;6.20;;;1.50;;
65658;SDS011;60181;53.258;6.932;2023-12-28T12:41:28;6.60;;;1.20;;
65658;SDS011;60181;53.258;6.932;2023-12-28T12:45:40;6.60;;;1.20;;
65658;SDS011;60181;53.258;6.932;2023-12-28T12:49:55;5.30;;;1.30;;
65658;SDS011;60181;53.258;6.932;2023-12-28T12:54:04;5.30;;;1.30;;
65658;SDS011;60181;53.258;6.932;2023-12-28T12:58:16;5.30;;;1.30;;
65658;SDS011;60181;53.258;6.932;2023-12-28T13:02:28;7.10;;;1.60;;
65658;SDS011;60181;53.258;6.932;2023-12-28T13:06:40;7.10;;;1.60;;
65658;SDS011;60181;53.258;6.932;2023-12-28T13:10:52;5.50;;;1.20;;
65658;SDS011;60181;53.258;6.932;2023-12-28T13:15:05;5.50;;;1.20;;
65658;SDS011;60181;53.258;6.932;2023-12-28T13:19:16;5.50;;;1.20;;
65658;SDS011;60181;53.258;6.932;2023-12-28T13:23:28;5.20;;;1.30;;
65658;SDS011;60181;53.258;6.932;2023-12-28T13:27:40;5.20;;;1.30;;
65658;SDS011;60181;53.258;6.932;2023-12-28T13:31:52;6.40;;;1.40;;
65658;SDS011;60181;53.258;6.932;2023-12-28T13:36:05;6.40;;;1.40;;
65658;SDS011;60181;53.258;6.932;2023-12-28T13:40:16;7.30;;;1.10;;
65658;SDS011;60181;53.258;6.932;2023-12-28T13:44:28;7.30;;;1.10;;
65658;SDS011;60181;53.258;6.932;2023-12-28T13:48:40;7.30;;;1.10;;
65658;SDS011;60181;53.258;6.932;2023-12-28T13:52:52;7.50;;;1.40;;
65658;SDS011;60181;53.258;6.932;2023-12-28T13:57:04;7.50;;;1.40;;
65658;SDS011;60181;53.258;6.932;2023-12-28T14:01:16;6.40;;;1.20;;
65658;SDS011;60181;53.258;6.932;2023-12-28T14:05:28;6.40;;;1.20;;
65658;SDS011;60181;53.258;6.932;2023-12-28T14:09:40;6.40;;;1.20;;
65658;SDS011;60181;53.258;6.932;2023-12-28T14:13:52;4.60;;;1.30;;
65658;SDS011;60181;53.258;6.932;2023-12-28T14:18:04;4.60;;;1.30;;
65658;SDS011;60181;53.258;6.932;2023-12-28T14:22:16;5.90;;;1.40;;
65658;SDS011;60181;53.258;6.932;2023-12-28T14:26:28;5.90;;;1.40;;
65658;SDS011;60181;53.258;6.932;2023-12-28T14:30:41;6.10;;;1.60;;
65658;SDS011;60181;53.258;6.932;2023-12-28T14:34:53;6.10;;;1.60;;
65658;SDS011;60181;53.258;6.932;2023-12-28T14:39:05;6.10;;;1.60;;
65658;SDS011;60181;53.258;6.932;2023-12-28T14:43:16;7.40;;;1.30;;
65658;SDS011;60181;53.258;6.932;2023-12-28T14:47:28;7.40;;;1.30;;
65658;SDS011;60181;53.258;6.932;2023-12-28T14:51:40;4.10;;;1.30;;
65658;SDS011;60181;53.258;6.932;2023-12-28T14:55:52;4.10;;;1.30;;
65658;SDS011;60181;53.258;6.932;2023-12-28T15:00:05;5.20;;;1.40;;
65658;SDS011;60181;53.258;6.932;2023-12-28T15:04:16;5.20;;;1.40;;
65658;SDS011;60181;53.258;6.932;2023-12-28T15:08:28;5.20;;;1.40;;
65658;SDS011;60181;53.258;6.932;2023-12-28T15:12:40;6.60;;;1.20;;
65658;SDS011;60181;53.258;6.932;2023-12-28T15:16:52;6.60;;;1.20;;
65658;SDS011;60181;53.258;6.932;2023-12-28T15:21:04;4.80;;;1.10;;
65658;SDS011;60181;53.258;6.932;2023-12-28T15:25:16;4.80;;;1.10;;
65658;SDS011;60181;53.258;6.932;2023-12-28T15:29:28;4.80;;;1.10;;
65658;SDS011;60181;53.258;6.932;2023-12-28T15:33:40;4.80;;;1.30;;
65658;SDS011;60181;53.258;6.932;2023-12-28T15:37:52;4.80;;;1.30;;
65658;SDS011;60181;53.258;6.932;2023-12-28T15:42:04;6.70;;;1.30;;
65658;SDS011;60181;53.258;6.932;2023-12-28T15:46:16;6.70;;;1.30;;
65658;SDS011;60181;53.258;6.932;2023-12-28T15:50:28;4.50;;;1.10;;
65658;SDS011;60181;53.258;6.932;2023-12-28T15:54:40;4.50;;;1.10;;
65658;SDS011;60181;53.258;6.932;2023-12-28T15:58:52;4.50;;;1.10;;
65658;SDS011;60181;53.258;6.932;2023-12-28T16:03:04;7.40;;;1.40;;
65658;SDS011;60181;53.258;6.932;2023-12-28T16:07:16;7.40;;;1.40;;
65658;SDS011;60181;53.258;6.932;2023-12-28T16:11:28;5.20;;;1.20;;
65658;SDS011;60181;53.258;6.932;2023-12-28T16:15:40;5.20;;;1.20;;
65658;SDS011;60181;53.258;6.932;2023-12-28T16:19:52;7.50;;;2.40;;
65658;SDS011;60181;53.258;6.932;2023-12-28T16:24:04;7.50;;;2.40;;
65658;SDS011;60181;53.258;6.932;2023-12-28T16:28:16;7.50;;;2.40;;
65658;SDS011;60181;53.258;6.932;2023-12-28T16:32:28;6.30;;;1.70;;
65658;SDS011;60181;53.258;6.932;2023-12-28T16:36:40;6.30;;;1.70;;
65658;SDS011;60181;53.258;6.932;2023-12-28T16:40:52;8.60;;;2.20;;
65658;SDS011;60181;53.258;6.932;2023-12-28T16:45:04;8.60;;;2.20;;
65658;SDS011;60181;53.258;6.932;2023-12-28T16:49:16;8.60;;;2.20;;
65658;SDS011;60181;53.258;6.932;2023-12-28T16:53:29;9.90;;;2.60;;
65658;SDS011;60181;53.258;6.932;2023-12-28T16:57:40;9.90;;;2.60;;
65658;SDS011;60181;53.258;6.932;2023-12-28T17:01:52;11.50;;;2.90;;
65658;SDS011;60181;53.258;6.932;2023-12-28T17:06:04;11.50;;;2.90;;
65658;SDS011;60181;53.258;6.932;2023-12-28T17:10:16;10.30;;;2.70;;
65658;SDS011;60181;53.258;6.932;2023-12-28T17:14:28;10.30;;;2.70;;
65658;SDS011;60181;53.258;6.932;2023-12-28T17:18:40;10.30;;;2.70;;
65658;SDS011;60181;53.258;6.932;2023-12-28T17:22:53;12.50;;;3.40;;
65658;SDS011;60181;53.258;6.932;2023-12-28T17:27:04;12.50;;;3.40;;
65658;SDS011;60181;53.258;6.932;2023-12-28T17:31:17;12.60;;;3.90;;
65658;SDS011;60181;53.258;6.932;2023-12-28T17:35:28;12.60;;;3.90;;
65658;SDS011;60181;53.258;6.932;2023-12-28T17:39:40;12.60;;;3.90;;
65658;SDS011;60181;53.258;6.932;2023-12-28T17:43:53;13.90;;;3.90;;
65658;SDS011;60181;53.258;6.932;2023-12-28T17:48:07;13.90;;;3.90;;
65658;SDS011;60181;53.258;6.932;2023-12-28T17:52:17;12.60;;;4.10;;
65658;SDS011;60181;53.258;6.932;2023-12-28T17:56:28;12.60;;;4.10;;
65658;SDS011;60181;53.258;6.932;2023-12-28T18:00:40;12.10;;;4.30;;
65658;SDS011;60181;53.258;6.932;2023-12-28T18:04:52;12.10;;;4.30;;
65658;SDS011;60181;53.258;6.932;2023-12-28T18:09:04;12.10;;;4.30;;
65658;SDS011;60181;53.258;6.932;2023-12-28T18:13:16;11.80;;;3.90;;
65658;SDS011;60181;53.258;6.932;2023-12-28T18:17:28;11.80;;;3.90;;
65658;SDS011;60181;53.258;6.932;2023-12-28T18:21:40;10.60;;;3.90;;
65658;SDS011;60181;53.258;6.932;2023-12-28T18:25:52;10.60;;;3.90;;
65658;SDS011;60181;53.258;6.932;2023-12-28T18:30:04;9.60;;;3.40;;
65658;SDS011;60181;53.258;6.932;2023-12-28T18:34:16;9.60;;;3.40;;
65658;SDS011;60181;53.258;6.932;2023-12-28T18:38:28;9.60;;;3.40;;
65658;SDS011;60181;53.258;6.932;2023-12-28T18:42:40;9.20;;;3.50;;
65658;SDS011;60181;53.258;6.932;2023-12-28T18:46:52;9.20;;;3.50;;
65658;SDS011;60181;53.258;6.932;2023-12-28T18:51:04;11.00;;;3.60;;
65658;SDS011;60181;53.258;6.932;2023-12-28T18:55:16;11.00;;;3.60;;
65658;SDS011;60181;53.258;6.932;2023-12-28T18:59:28;11.00;;;3.60;;
65658;SDS011;60181;53.258;6.932;2023-12-28T19:03:40;11.80;;;3.60;;
65658;SDS011;60181;53.258;6.932;2023-12-28T19:07:52;11.80;;;3.60;;
65658;SDS011;60181;53.258;6.932;2023-12-28T19:12:05;13.20;;;3.60;;
65658;SDS011;60181;53.258;6.932;2023-12-28T19:16:16;13.20;;;3.60;;
65658;SDS011;60181;53.258;6.932;2023-12-28T19:20:28;10.00;;;3.10;;
65658;SDS011;60181;53.258;6.932;2023-12-28T19:24:40;10.00;;;3.10;;
65658;SDS011;60181;53.258;6.932;2023-12-28T19:28:52;10.00;;;3.10;;
65658;SDS011;60181;53.258;6.932;2023-12-28T19:33:04;7.60;;;3.10;;
65658;SDS011;60181;53.258;6.932;2023-12-28T19:37:16;7.60;;;3.10;;
65658;SDS011;60181;53.258;6.932;2023-12-28T19:41:28;10.70;;;2.80;;
65658;SDS011;60181;53.258;6.932;2023-12-28T19:45:40;10.70;;;2.80;;
65658;SDS011;60181;53.258;6.932;2023-12-28T19:49:52;8.90;;;2.90;;
65658;SDS011;60181;53.258;6.932;2023-12-28T19:54:04;8.90;;;2.90;;
65658;SDS011;60181;53.258;6.932;2023-12-28T19:58:16;8.90;;;2.90;;
65658;SDS011;60181;53.258;6.932;2023-12-28T20:02:28;10.60;;;2.60;;
65658;SDS011;60181;53.258;6.932;2023-12-28T20:06:43;10.60;;;2.60;;
65658;SDS011;60181;53.258;6.932;2023-12-28T20:10:52;7.60;;;2.60;;
65658;SDS011;60181;53.258;6.932;2023-12-28T20:15:04;7.60;;;2.60;;
65658;SDS011;60181;53.258;6.932;2023-12-28T20:19:16;7.60;;;2.60;;
65658;SDS011;60181;53.258;6.932;2023-12-28T20:23:28;7.60;;;2.20;;
65658;SDS011;60181;53.258;6.932;2023-12-28T20:27:40;7.60;;;2.20;;
65658;SDS011;60181;53.258;6.932;2023-12-28T20:31:52;7.50;;;2.20;;
65658;SDS011;60181;53.258;6.932;2023-12-28T20:36:04;7.50;;;2.20;;
65658;SDS011;60181;53.258;6.932;2023-12-28T20:40:16;11.50;;;2.20;;
65658;SDS011;60181;53.258;6.932;2023-12-28T20:44:28;11.50;;;2.20;;
65658;SDS011;60181;53.258;6.932;2023-12-28T20:48:40;11.50;;;2.20;;
65658;SDS011;60181;53.258;6.932;2023-12-28T20:52:52;7.90;;;2.40;;
65658;SDS011;60181;53.258;6.932;2023-12-28T20:57:04;7.90;;;2.40;;
65658;SDS011;60181;53.258;6.932;2023-12-28T21:01:16;7.10;;;2.60;;
65658;SDS011;60181;53.258;6.932;2023-12-28T21:05:28;7.10;;;2.60;;
65658;SDS011;60181;53.258;6.932;2023-12-28T21:09:40;7.10;;;2.60;;
65658;SDS011;60181;53.258;6.932;2023-12-28T21:13:52;8.30;;;2.20;;
65658;SDS011;60181;53.258;6.932;2023-12-28T21:18:04;8.30;;;2.20;;
65658;SDS011;60181;53.258;6.932;2023-12-28T21:22:16;7.60;;;2.10;;
65658;SDS011;60181;53.258;6.932;2023-12-28T21:26:28;7.60;;;2.10;;
65658;SDS011;60181;53.258;6.932;2023-12-28T21:30:40;7.90;;;2.00;;
65658;SDS011;60181;53.258;6.932;2023-12-28T21:34:52;7.90;;;2.00;;
65658;SDS011;60181;53.258;6.932;2023-12-28T21:39:04;7.90;;;2.00;;
65658;SDS011;60181;53.258;6.932;2023-12-28T21:43:16;16.20;;;2.00;;
65658;SDS011;60181;53.258;6.932;2023-12-28T21:47:28;16.20;;;2.00;;
65658;SDS011;60181;53.258;6.932;2023-12-28T21:51:40;6.30;;;1.60;;
65658;SDS011;60181;53.258;6.932;2023-12-28T21:55:52;6.30;;;1.60;;
65658;SDS011;60181;53.258;6.932;2023-12-28T22:00:04;6.40;;;1.60;;
65658;SDS011;60181;53.258;6.932;2023-12-28T22:04:16;6.40;;;1.60;;
65658;SDS011;60181;53.258;6.932;2023-12-28T22:08:28;6.40;;;1.60;;
65658;SDS011;60181;53.258;6.932;2023-12-28T22:12:40;5.80;;;1.80;;
65658;SDS011;60181;53.258;6.932;2023-12-28T22:16:52;5.80;;;1.80;;
65658;SDS011;60181;53.258;6.932;2023-12-28T22:21:04;7.00;;;1.80;;
65658;SDS011;60181;53.258;6.932;2023-12-28T22:25:16;7.00;;;1.80;;
65658;SDS011;60181;53.258;6.932;2023-12-28T22:29:28;7.00;;;1.80;;
65658;SDS011;60181;53.258;6.932;2023-12-28T22:33:40;7.90;;;1.90;;
65658;SDS011;60181;53.258;6.932;2023-12-28T22:37:52;7.90;;;1.90;;
65658;SDS011;60181;53.258;6.932;2023-12-28T22:42:04;10.00;;;1.60;;
65658;SDS011;60181;53.258;6.932;2023-12-28T22:46:16;10.00;;;1.60;;
65658;SDS011;60181;53.258;6.932;2023-12-28T22:50:28;8.40;;;1.80;;
65658;SDS011;60181;53.258;6.932;2023-12-28T22:54:40;8.40;;;1.80;;
65658;SDS011;60181;53.258;6.932;2023-12-28T22:58:52;8.40;;;1.80;;
65658;SDS011;60181;53.258;6.932;2023-12-28T23:03:04;7.80;;;1.90;;
65658;SDS011;60181;53.258;6.932;2023-12-28T23:07:15;7.80;;;1.90;;
65658;SDS011;60181;53.258;6.932;2023-12-28T23:11:27;4.70;;;1.60;;
65658;SDS011;60181;53.258;6.932;2023-12-28T23:15:39;4.70;;;1.60;;
65658;SDS011;60181;53.258;6.932;2023-12-28T23:19:51;7.90;;;1.60;;
65658;SDS011;60181;53.258;6.932;2023-12-28T23:24:04;7.90;;;1.60;;
65658;SDS011;60181;53.258;6.932;2023-12-28T23:28:15;7.90;;;1.60;;
65658;SDS011;60181;53.258;6.932;2023-12-28T23:32:27;6.30;;;1.60;;
65658;SDS011;60181;53.258;6.932;2023-12-28T23:36:39;6.30;;;1.60;;
65658;SDS011;60181;53.258;6.932;2023-12-28T23:40:51;10.30;;;1.70;;
65658;SDS011;60181;53.258;6.932;2023-12-28T23:45:04;10.30;;;1.70;;
65658;SDS011;60181;53.258;6.932;2023-12-28T23:49:15;10.30;;;1.70;;
65658;SDS011;60181;53.258;6.932;2023-12-28T23:53:27;4.60;;;1.50;;
65658;SDS011;60181;53.258;6.932;2023-12-28T23:57:39;4.60;;;1.50;;
